Terminal Aerodrome Forecast
Issued by NWS Paducah, KY

Home | Current Version | Previous Version | Graphics & Text | Print | Product List | Glossary On
Versions: 1 2 3 4 5 6 7 8 9 10 11 12
914
FTUS43 KPAH 141728
TAFPAH
TAF
KPAH 141728Z 1418/1518 01006KT P6SM OVC035
     FM150800 28003KT P6SM SCT040 BKN150
     FM151400 28007KT P6SM SCT040=

USA.gov is the U.S. government's official web portal to all federal, state and local government web resources and services.